Time;durP1;ratioP1;P1;durP2;ratioP2;P2;SDS_P1;SDS_P2;PMS_P1;PMS_P2;Temp;Humidity;BMP_temperature;BMP_pressure;BME280_temperature;BME280_humidity;BME280_pressure;Samples;Min_cycle;Max_cycle;Signal;HPM_P1;HPM_P2
2023/05/19 00:00:46;;;;;;;23.42;11.75;;;;;;;9.08;100.00;102476.28;5085395;28;20456;-69
2023/05/19 00:03:11;;;;;;;23.70;11.93;;;;;;;9.06;100.00;102483.28;5086283;28;20111;-68
2023/05/19 00:05:44;;;;;;;23.08;11.95;;;;;;;8.98;100.00;102476.81;5084217;28;20112;-69
2023/05/19 00:08:09;;;;;;;23.05;11.95;;;;;;;8.92;100.00;102480.97;5086556;28;20469;-69
2023/05/19 00:10:35;;;;;;;23.75;11.98;;;;;;;8.86;100.00;102481.63;5084107;28;20025;-69
2023/05/19 00:13:01;;;;;;;23.33;11.57;;;;;;;8.87;100.00;102470.25;5087341;28;20058;-69
2023/05/19 00:15:26;;;;;;;22.83;11.70;;;;;;;8.90;100.00;102478.28;5084051;28;20052;-68
2023/05/19 00:17:54;;;;;;;24.08;12.43;;;;;;;8.82;100.00;102475.34;5086197;28;20383;-69
2023/05/19 00:20:20;;;;;;;22.95;11.98;;;;;;;8.81;100.00;102468.28;5084896;28;20032;-69
2023/05/19 00:22:45;;;;;;;25.33;12.00;;;;;;;8.79;100.00;102466.44;5085091;28;20043;-69
2023/05/19 00:25:10;;;;;;;24.67;11.88;;;;;;;8.76;100.00;102464.56;5086236;28;20098;-69
2023/05/19 00:27:36;;;;;;;23.23;11.70;;;;;;;8.77;100.00;102461.09;5065641;28;20035;-69
2023/05/19 00:30:01;;;;;;;23.27;11.50;;;;;;;8.79;100.00;102455.88;5086839;28;20145;-69
2023/05/19 00:32:26;;;;;;;23.33;11.70;;;;;;;8.79;100.00;102459.41;5083587;28;20065;-68
2023/05/19 00:34:52;;;;;;;23.75;11.52;;;;;;;8.77;100.00;102453.19;5085726;28;20040;-69
2023/05/19 00:37:17;;;;;;;22.67;11.30;;;;;;;8.81;100.00;102454.19;5084906;28;20107;-69
2023/05/19 00:39:42;;;;;;;23.90;11.65;;;;;;;8.79;100.00;102450.59;5084546;28;20025;-68
2023/05/19 00:42:08;;;;;;;22.17;10.90;;;;;;;8.81;100.00;102449.81;5086151;28;20024;-69
2023/05/19 00:44:38;;;;;;;24.15;11.57;;;;;;;8.76;100.00;102458.41;5065359;28;20123;-69
2023/05/19 00:47:04;;;;;;;24.08;11.30;;;;;;;8.71;100.00;102451.22;5079660;28;20052;-70
2023/05/19 00:49:29;;;;;;;22.58;11.18;;;;;;;8.67;100.00;102444.03;5078281;28;20086;-67
2023/05/19 00:51:56;;;;;;;23.45;11.60;;;;;;;8.62;100.00;102445.59;5083671;28;20037;-71
2023/05/19 00:54:21;;;;;;;23.10;11.38;;;;;;;8.54;100.00;102449.69;5085363;28;20025;-69
2023/05/19 00:56:48;;;;;;;23.20;10.93;;;;;;;8.51;100.00;102449.56;5083421;28;20432;-68
2023/05/19 00:59:14;;;;;;;22.63;10.75;;;;;;;8.53;100.00;102451.44;5084377;28;20058;-68
2023/05/19 01:01:39;;;;;;;22.52;10.70;;;;;;;8.44;100.00;102450.13;5085543;28;20032;-68
2023/05/19 01:04:08;;;;;;;23.30;10.75;;;;;;;8.43;100.00;102453.59;5082836;28;20502;-71
2023/05/19 01:06:36;;;;;;;22.77;10.40;;;;;;;8.39;100.00;102455.22;5079313;28;20067;-68
2023/05/19 01:09:02;;;;;;;22.02;10.30;;;;;;;8.44;100.00;102452.78;5078615;28;20025;-68
2023/05/19 01:11:27;;;;;;;22.73;10.40;;;;;;;8.43;100.00;102448.31;5085699;28;20032;-67
2023/05/19 01:13:53;;;;;;;22.77;10.10;;;;;;;8.36;100.00;102455.13;5083612;28;20372;-68
2023/05/19 01:16:30;;;;;;;23.25;10.18;;;;;;;8.35;100.00;102451.56;5084371;28;20033;-68
2023/05/19 01:18:56;;;;;;;22.45;9.75;;;;;;;8.31;100.00;102448.75;5065054;28;20391;-71
2023/05/19 01:21:43;;;;;;;23.02;10.23;;;;;;;8.33;100.00;102447.97;5084604;28;20017;-68
2023/05/19 01:24:45;;;;;;;22.50;9.93;;;;;;;8.29;100.00;102451.31;5080038;28;20123;-68
2023/05/19 01:27:52;;;;;;;22.70;9.50;;;;;;;8.29;100.00;102453.97;5080249;28;20498;-68
2023/05/19 01:30:38;;;;;;;21.95;9.85;;;;;;;8.19;100.00;102452.69;5045038;28;20494;-69
2023/05/19 01:33:06;;;;;;;23.17;9.50;;;;;;;8.10;100.00;102448.81;5078699;28;20025;-69
2023/05/19 01:35:35;;;;;;;21.88;9.40;;;;;;;8.07;100.00;102446.03;5078075;28;20029;-70
2023/05/19 01:38:02;;;;;;;22.48;9.52;;;;;;;7.99;100.00;102445.72;5078047;28;20471;-71
2023/05/19 01:40:28;;;;;;;22.95;9.68;;;;;;;7.96;100.00;102441.22;5085292;28;20072;-78
2023/05/19 01:42:56;;;;;;;22.35;9.43;;;;;;;7.92;100.00;102441.97;5082810;28;20032;-76
2023/05/19 01:45:22;;;;;;;23.48;9.80;;;;;;;7.94;100.00;102445.53;5084241;28;20514;-74
2023/05/19 01:47:54;;;;;;;23.48;9.43;;;;;;;7.86;100.00;102439.06;5083716;28;20032;-78
2023/05/19 01:50:20;;;;;;;23.02;9.32;;;;;;;7.89;100.00;102440.94;5065757;28;20051;-77
2023/05/19 01:52:46;;;;;;;21.38;9.07;;;;;;;7.84;100.00;102440.75;5083615;28;20043;-79
2023/05/19 01:55:11;;;;;;;22.17;9.50;;;;;;;7.87;100.00;102435.59;5082523;28;20029;-68
2023/05/19 01:57:49;;;;;;;22.23;9.48;;;;;;;7.84;100.00;102435.47;5085167;28;20040;-76
2023/05/19 02:00:25;;;;;;;22.10;9.07;;;;;;;7.80;100.00;102436.19;5064784;28;20029;-74
2023/05/19 02:03:21;;;;;;;21.77;9.68;;;;;;;7.80;100.00;102430.91;5082715;28;20073;-72
2023/05/19 02:06:06;;;;;;;23.08;9.35;;;;;;;7.73;100.00;102432.38;5081396;28;20119;-68
2023/05/19 02:08:50;;;;;;;22.33;9.50;;;;;;;7.67;100.00;102433.06;5077318;28;20038;-68
2023/05/19 02:11:24;;;;;;;22.90;10.05;;;;;;;7.73;100.00;102434.13;5080376;28;20059;-68
2023/05/19 02:13:55;;;;;;;23.05;9.90;;;;;;;7.70;100.00;102432.25;5082772;28;20039;-68
2023/05/19 02:16:26;;;;;;;23.05;9.50;;;;;;;7.65;100.00;102425.94;5083363;28;20028;-68
2023/05/19 02:18:52;;;;;;;23.08;10.00;;;;;;;7.59;100.00;102425.69;5082824;28;20057;-68
2023/05/19 02:21:18;;;;;;;22.05;9.82;;;;;;;7.59;100.00;102428.31;5065146;28;20386;-68
2023/05/19 02:23:43;;;;;;;22.85;9.82;;;;;;;7.59;100.00;102428.31;5083439;28;20095;-69
2023/05/19 02:26:09;;;;;;;22.92;9.75;;;;;;;7.58;100.00;102424.75;5081645;28;20024;-68
2023/05/19 02:28:35;;;;;;;22.05;9.73;;;;;;;7.49;100.00;102424.38;5084794;28;20020;-69
2023/05/19 02:31:01;;;;;;;22.40;10.18;;;;;;;7.45;100.00;102417.19;5081070;28;20033;-69
2023/05/19 02:33:29;;;;;;;22.13;9.70;;;;;;;7.35;100.00;102420.25;5084150;28;20449;-68
2023/05/19 02:35:55;;;;;;;23.58;10.18;;;;;;;7.42;100.00;102427.59;5081875;28;20028;-68
2023/05/19 02:38:20;;;;;;;22.63;10.23;;;;;;;7.38;100.00;102426.53;5082926;28;20028;-69
2023/05/19 02:40:45;;;;;;;22.58;9.82;;;;;;;7.44;100.00;102404.84;5083698;28;20510;-68
2023/05/19 02:43:11;;;;;;;23.48;10.40;;;;;;;7.37;100.00;102418.59;5081684;28;20033;-69
2023/05/19 02:45:36;;;;;;;22.40;10.50;;;;;;;7.31;100.00;102414.88;5084293;28;20080;-70
2023/05/19 02:48:02;;;;;;;22.42;10.30;;;;;;;7.25;100.00;102414.63;5081062;28;20071;-69
2023/05/19 02:50:27;;;;;;;24.33;10.23;;;;;;;7.21;100.00;102419.66;5065671;28;20052;-68
2023/05/19 02:52:52;;;;;;;24.85;10.60;;;;;;;7.20;100.00;102418.78;5082078;28;20036;-68
2023/05/19 02:55:18;;;;;;;23.30;10.35;;;;;;;7.17;100.00;102413.38;5082376;28;20036;-69
2023/05/19 02:57:43;;;;;;;24.02;10.43;;;;;;;7.17;100.00;102415.13;5083282;28;20032;-69
2023/05/19 03:00:09;;;;;;;23.95;10.55;;;;;;;7.13;100.00;102416.72;5081307;28;20029;-69
2023/05/19 03:02:34;;;;;;;23.90;10.73;;;;;;;7.06;100.00;102415.56;5084183;28;20383;-69
2023/05/19 03:05:02;;;;;;;22.50;10.32;;;;;;;7.00;100.00;102409.13;5080792;28;20471;-69
2023/05/19 03:07:27;;;;;;;23.45;10.10;;;;;;;6.96;100.00;102408.06;5083730;28;20035;-69
2023/05/19 03:09:52;;;;;;;22.92;10.90;;;;;;;6.95;100.00;102409.81;5081808;28;20023;-69
2023/05/19 03:12:18;;;;;;;22.83;10.50;;;;;;;6.90;100.00;102405.19;5082106;28;20037;-69
2023/05/19 03:14:43;;;;;;;24.60;10.63;;;;;;;6.93;100.00;102415.81;5083420;28;20020;-69
2023/05/19 03:17:09;;;;;;;24.98;10.95;;;;;;;6.85;100.00;102410.25;5081013;28;20033;-69
2023/05/19 03:19:34;;;;;;;23.73;10.50;;;;;;;6.81;100.00;102413.56;5085015;28;20479;-69
2023/05/19 03:22:00;;;;;;;23.35;10.18;;;;;;;6.72;100.00;102406.16;5084988;28;20029;-68
2023/05/19 03:24:25;;;;;;;22.98;10.73;;;;;;;6.71;100.00;102416.59;5087170;28;20119;-69
2023/05/19 03:26:51;;;;;;;24.15;10.85;;;;;;;6.65;100.00;102417.22;5086117;28;20031;-69
2023/05/19 03:29:16;;;;;;;23.08;10.85;;;;;;;6.58;100.00;102420.38;5086059;28;20059;-69
2023/05/19 03:31:41;;;;;;;23.73;10.73;;;;;;;6.54;100.00;102419.38;5087123;28;20417;-69
2023/05/19 03:34:07;;;;;;;23.75;11.00;;;;;;;6.51;100.00;102424.50;5084659;28;20115;-69
2023/05/19 03:36:38;;;;;;;23.83;10.82;;;;;;;6.48;100.00;102418.19;5087837;28;20035;-69
2023/05/19 03:39:05;;;;;;;24.48;11.10;;;;;;;6.38;100.00;102433.53;5080530;28;20387;-68
2023/05/19 03:41:30;;;;;;;25.95;11.05;;;;;;;6.37;100.00;102426.47;5087700;28;20426;-69
2023/05/19 03:43:56;;;;;;;24.50;10.95;;;;;;;6.36;100.00;102432.53;5085368;28;20052;-68
2023/05/19 03:46:21;;;;;;;22.92;10.70;;;;;;;6.30;100.00;102436.63;5086242;28;20031;-69
2023/05/19 03:48:46;;;;;;;24.25;11.20;;;;;;;6.31;100.00;102436.69;5086628;28;20031;-69
2023/05/19 03:51:12;;;;;;;24.95;11.35;;;;;;;6.34;100.00;102441.19;5084593;28;20396;-69
2023/05/19 03:53:37;;;;;;;24.02;11.30;;;;;;;6.36;100.00;102436.91;5087358;28;20032;-69
2023/05/19 03:56:03;;;;;;;23.38;10.98;;;;;;;6.39;100.00;102442.28;5084163;28;20028;-69
2023/05/19 03:58:28;;;;;;;24.55;11.65;;;;;;;6.31;100.00;102439.31;5087034;28;20557;-69
2023/05/19 04:00:54;;;;;;;23.17;11.10;;;;;;;6.32;100.00;102441.13;5085031;28;20032;-69
2023/05/19 04:03:20;;;;;;;24.40;11.98;;;;;;;6.30;100.00;102434.00;5085855;28;20082;-67
2023/05/19 04:05:45;;;;;;;23.90;11.38;;;;;;;6.36;100.00;102434.28;5086059;28;20118;-68
2023/05/19 04:08:11;;;;;;;23.40;11.00;;;;;;;6.36;100.00;102434.28;5084268;28;20036;-67
2023/05/19 04:10:36;;;;;;;23.60;11.13;;;;;;;6.41;100.00;102427.53;5087525;28;20182;-70
2023/05/19 04:13:02;;;;;;;24.05;11.57;;;;;;;6.42;100.00;102434.53;5083464;28;20036;-71
2023/05/19 04:15:27;;;;;;;25.05;11.38;;;;;;;6.51;100.00;102435.00;5086418;28;20560;-67
2023/05/19 04:17:52;;;;;;;24.67;11.82;;;;;;;6.53;100.00;102435.94;5085075;28;20039;-68
2023/05/19 04:20:18;;;;;;;24.40;11.60;;;;;;;6.52;100.00;102434.16;5085068;28;20147;-68
2023/05/19 04:22:43;;;;;;;24.83;11.85;;;;;;;6.49;100.00;102428.75;5086342;28;20040;-68
2023/05/19 04:25:09;;;;;;;25.30;11.82;;;;;;;6.50;100.00;102432.31;5083917;28;20032;-67
2023/05/19 04:27:37;;;;;;;25.55;12.20;;;;;;;6.46;100.00;102426.00;5086845;28;20502;-73
2023/05/19 04:30:04;;;;;;;26.23;12.35;;;;;;;6.47;100.00;102427.78;5079653;28;20059;-67
2023/05/19 04:32:29;;;;;;;26.75;12.63;;;;;;;6.49;100.00;102425.25;5086346;28;20043;-70
2023/05/19 04:34:57;;;;;;;25.27;12.95;;;;;;;6.53;100.00;102430.69;5087014;28;20032;-68
2023/05/19 04:37:24;;;;;;;26.85;12.98;;;;;;;6.49;100.00;102431.38;5088196;28;20115;-67
2023/05/19 04:39:51;;;;;;;23.70;11.98;;;;;;;6.57;100.00;102435.28;5086742;28;20117;-68
2023/05/19 04:42:19;;;;;;;25.75;12.57;;;;;;;6.55;100.00;102434.31;5085839;28;20052;-67
2023/05/19 04:44:45;;;;;;;24.77;12.50;;;;;;;6.60;100.00;102430.16;5085641;28;20078;-67
2023/05/19 04:47:12;;;;;;;24.48;12.57;;;;;;;6.65;100.00;102432.09;5084002;28;20052;-67
2023/05/19 04:49:41;;;;;;;27.00;13.13;;;;;;;6.71;100.00;102435.00;5086225;28;20044;-67
2023/05/19 04:52:09;;;;;;;25.98;12.75;;;;;;;6.75;100.00;102440.47;5079465;28;20047;-68
2023/05/19 04:54:34;;;;;;;25.02;12.63;;;;;;;6.79;100.00;102436.25;5079190;28;20035;-67
2023/05/19 04:57:00;;;;;;;26.65;13.20;;;;;;;6.83;100.00;102443.47;5085863;28;20062;-67
2023/05/19 04:59:25;;;;;;;25.27;13.18;;;;;;;6.89;100.00;102435.84;5083949;28;20084;-69
2023/05/19 05:01:50;;;;;;;26.60;13.30;;;;;;;6.94;100.00;102434.28;5084727;28;20024;-67
2023/05/19 05:04:16;;;;;;;25.38;13.20;;;;;;;7.05;100.00;102437.41;5085055;28;20027;-67
2023/05/19 05:06:46;;;;;;;25.85;13.75;;;;;;;7.11;100.00;102436.78;5083333;28;20032;-68
2023/05/19 05:09:12;;;;;;;25.95;12.80;;;;;;;7.21;100.00;102438.06;5085761;28;20029;-67
2023/05/19 05:11:38;;;;;;;26.08;13.48;;;;;;;7.28;100.00;102440.13;5064740;28;20035;-67
2023/05/19 05:14:03;;;;;;;27.25;15.18;;;;;;;7.36;100.00;102445.75;5078463;28;20400;-68
2023/05/19 05:16:29;;;;;;;26.77;13.57;;;;;;;7.42;100.00;102436.38;5085697;28;20043;-67
2023/05/19 05:18:56;;;;;;;26.60;13.50;;;;;;;7.49;100.00;102434.91;5083539;28;20043;-68
2023/05/19 05:21:22;;;;;;;26.45;13.93;;;;;;;7.57;100.00;102436.16;5084433;28;20078;-67
2023/05/19 05:23:50;;;;;;;26.83;13.52;;;;;;;7.64;100.00;102446.06;5084388;28;20040;-67
2023/05/19 05:26:22;;;;;;;25.48;13.45;;;;;;;7.71;100.00;102443.72;5083126;28;20439;-67
2023/05/19 05:28:48;;;;;;;;;;;;;;;7.74;100.00;102450.00;5084710;28;20480;-68
2023/05/19 05:31:14;;;;;;;25.50;13.40;;;;;;;7.85;100.00;102448.69;5083155;28;20117;-67
2023/05/19 05:33:40;;;;;;;25.15;13.48;;;;;;;7.86;100.00;102449.59;5085505;28;20127;-67
2023/05/19 05:36:06;;;;;;;27.17;13.95;;;;;;;7.94;100.00;102453.44;5082549;28;20085;-67
2023/05/19 05:38:31;;;;;;;26.88;13.38;;;;;;;8.01;100.00;102452.88;5085444;28;20028;-68
2023/05/19 05:40:57;;;;;;;26.30;13.38;;;;;;;8.08;100.00;102450.47;5082872;28;20036;-81
2023/05/19 05:43:22;;;;;;;25.45;12.80;;;;;;;8.14;100.00;102448.06;5083343;28;20143;-69
2023/05/19 05:45:47;;;;;;;24.30;12.68;;;;;;;8.17;100.00;102449.13;5084011;28;20028;-74
2023/05/19 05:48:13;;;;;;;25.98;13.35;;;;;;;8.18;100.00;102447.38;5077097;28;20036;-70
2023/05/19 05:50:39;;;;;;;25.48;12.80;;;;;;;8.25;100.00;102454.66;5079280;28;20080;-72
2023/05/19 05:53:06;;;;;;;25.85;13.13;;;;;;;8.29;100.00;102448.69;5078815;28;20036;-73
2023/05/19 05:55:31;;;;;;;25.08;13.18;;;;;;;8.36;100.00;102453.38;5078174;28;20044;-69
2023/05/19 05:57:57;;;;;;;25.42;13.10;;;;;;;8.47;100.00;102447.66;5077702;28;20024;-73
2023/05/19 06:00:23;;;;;;;27.02;13.65;;;;;;;8.51;100.00;102447.81;5075358;28;20032;-79
2023/05/19 06:02:50;;;;;;;25.05;12.60;;;;;;;8.66;100.00;102455.41;5076511;28;20410;-69
2023/05/19 06:05:15;;;;;;;26.13;13.00;;;;;;;8.76;100.00;102459.28;5077012;28;20033;-72
2023/05/19 06:07:41;;;;;;;24.63;12.95;;;;;;;8.88;100.00;102453.56;5078195;28;20392;-71
2023/05/19 06:10:08;;;;;;;25.35;12.90;;;;;;;8.97;100.00;102453.00;5078559;28;20024;-70
2023/05/19 06:12:34;;;;;;;26.27;12.48;;;;;;;9.07;100.00;102455.13;5077826;28;20032;-71
2023/05/19 06:15:01;;;;;;;24.92;12.52;;;;;;;9.14;100.00;102461.53;5059232;28;20036;-71
2023/05/19 06:17:27;;;;;;;25.00;12.25;;;;;;;9.19;100.00;102460.88;5076106;28;20043;-69
2023/05/19 06:19:53;;;;;;;25.85;12.63;;;;;;;9.28;100.00;102455.03;5078677;28;20032;-72
2023/05/19 06:22:18;;;;;;;27.13;12.13;;;;;;;9.32;100.00;102461.28;5078499;28;20326;-72
2023/05/19 06:24:44;;;;;;;24.08;12.20;;;;;;;9.38;100.00;102456.25;5076405;28;20036;-71
2023/05/19 06:27:09;;;;;;;25.25;11.90;;;;;;;9.42;100.00;102448.50;5082248;28;20035;-70
2023/05/19 06:29:34;;;;;;;24.40;12.48;;;;;;;9.46;100.00;102451.22;5077485;28;20542;-73
2023/05/19 06:32:00;;;;;;;24.00;11.98;;;;;;;9.53;100.00;102454.13;5073630;28;20086;-68
2023/05/19 06:34:25;;;;;;;26.40;12.32;;;;;;;9.53;100.00;102456.75;5061946;28;20539;-72
2023/05/19 06:36:51;;;;;;;25.05;12.48;;;;;;;9.54;100.00;102455.03;5078531;28;20491;-70
2023/05/19 06:39:16;;;;;;;24.08;12.48;;;;;;;9.57;100.00;102463.06;5077027;28;20106;-75
2023/05/19 06:41:42;;;;;;;26.05;12.73;;;;;;;9.60;100.00;102464.03;5076508;28;20471;-74
2023/05/19 06:44:07;;;;;;;25.08;12.38;;;;;;;9.63;100.00;102459.75;5073123;28;20467;-69
2023/05/19 06:46:33;;;;;;;26.25;12.77;;;;;;;9.68;100.00;102456.38;5058841;28;20029;-69
2023/05/19 06:48:59;;;;;;;25.33;12.73;;;;;;;9.73;100.00;102449.53;5074845;28;20039;-70
2023/05/19 06:51:24;;;;;;;25.85;12.15;;;;;;;9.85;100.00;102458.72;5076152;28;20056;-70
2023/05/19 06:53:50;;;;;;;26.95;12.40;;;;;;;9.93;100.00;102460.75;5077150;28;20119;-70
2023/05/19 06:56:16;;;;;;;24.75;11.98;;;;;;;10.03;100.00;102459.31;5078918;28;20441;-70
2023/05/19 06:58:42;;;;;;;24.13;11.95;;;;;;;10.09;100.00;102461.22;5077362;28;20052;-70
2023/05/19 07:01:07;;;;;;;25.38;11.30;;;;;;;10.11;100.00;102460.44;5081013;28;20837;-70
2023/05/19 07:03:33;;;;;;;23.92;11.70;;;;;;;10.18;100.00;102456.25;5080262;28;20123;-71
2023/05/19 07:05:58;;;;;;;23.70;11.27;;;;;;;10.29;100.00;102459.22;5088638;28;20028;-69
2023/05/19 07:08:23;;;;;;;26.38;11.50;;;;;;;10.37;100.00;102464.78;5097888;28;20020;-70
2023/05/19 07:10:49;;;;;;;23.88;11.90;;;;;;;10.45;100.00;102457.97;5092279;28;20035;-72
2023/05/19 07:13:14;;;;;;;22.55;11.07;;;;;;;10.53;100.00;102455.56;5098898;28;20119;-70
2023/05/19 07:15:39;;;;;;;23.55;11.40;;;;;;;10.65;100.00;102453.31;5098483;28;20016;-72
2023/05/19 07:18:05;;;;;;;23.17;11.10;;;;;;;10.74;100.00;102456.19;5103564;28;20016;-68
2023/05/19 07:20:30;;;;;;;22.70;10.80;;;;;;;10.84;100.00;102452.09;5098459;28;20059;-70
2023/05/19 07:22:56;;;;;;;23.75;10.88;;;;;;;10.95;100.00;102452.38;5092344;28;20119;-71
2023/05/19 07:25:21;;;;;;;23.33;11.02;;;;;;;11.04;100.00;102457.94;5079585;28;20547;-69
2023/05/19 07:27:46;;;;;;;23.98;10.90;;;;;;;11.15;100.00;102460.88;5078321;28;20112;-70
2023/05/19 07:30:12;;;;;;;22.88;10.48;;;;;;;11.25;100.00;102454.97;5078287;28;20074;-70
2023/05/19 07:32:37;;;;;;;24.08;10.80;;;;;;;11.41;100.00;102453.66;5076645;28;20597;-71
2023/05/19 07:35:04;;;;;;;23.55;10.70;;;;;;;11.50;100.00;102448.63;5078911;28;20031;-70
2023/05/19 07:37:30;;;;;;;24.20;11.18;;;;;;;11.58;100.00;102454.09;5071093;28;20479;-70
2023/05/19 07:39:56;;;;;;;23.10;10.55;;;;;;;11.73;100.00;102450.94;5058230;28;20051;-70
2023/05/19 07:42:21;;;;;;;22.83;10.13;;;;;;;11.84;100.00;102457.41;5075861;28;20478;-70
2023/05/19 07:44:46;;;;;;;23.23;10.05;;;;;;;11.92;100.00;102454.03;5075679;28;20037;-70
2023/05/19 07:47:12;;;;;;;24.10;10.10;;;;;;;11.96;100.00;102443.59;5078469;28;20063;-70
2023/05/19 07:49:37;;;;;;;24.00;10.10;;;;;;;12.11;100.00;102451.00;5077352;28;20025;-70
2023/05/19 07:52:03;;;;;;;22.95;9.27;;;;;;;12.20;100.00;102440.63;5078059;28;20052;-70
2023/05/19 07:54:28;;;;;;;23.27;9.43;;;;;;;12.34;100.00;102443.56;5077855;28;20106;-70
2023/05/19 07:56:53;;;;;;;21.65;9.07;;;;;;;12.46;100.00;102442.94;5075998;28;20024;-70
2023/05/19 07:59:19;;;;;;;22.23;8.80;;;;;;;12.55;100.00;102444.91;5074321;28;20028;-70
2023/05/19 08:01:44;;;;;;;23.27;8.65;;;;;;;12.66;100.00;102446.03;5074944;28;20039;-70
2023/05/19 08:04:11;;;;;;;22.83;9.60;;;;;;;12.89;100.00;102443.84;5078327;28;20051;-70
2023/05/19 08:06:37;;;;;;;22.20;9.18;;;;;;;13.14;100.00;102444.34;5082550;28;20078;-70
2023/05/19 08:09:02;;;;;;;22.83;9.23;;;;;;;13.37;100.00;102443.91;5087155;28;20439;-70
2023/05/19 08:11:28;;;;;;;21.30;8.52;;;;;;;13.40;100.00;102441.31;5084382;28;20070;-70
2023/05/19 08:13:53;;;;;;;22.02;8.77;;;;;;;13.54;100.00;102442.47;5085770;28;20024;-70
2023/05/19 08:16:19;;;;;;;21.40;8.57;;;;;;;13.76;100.00;102437.47;5085807;28;20085;-69
2023/05/19 08:18:44;;;;;;;22.15;8.82;;;;;;;14.03;100.00;102439.69;5084824;28;20142;-69
2023/05/19 08:21:09;;;;;;;22.88;8.20;;;;;;;14.23;100.00;102436.44;5075265;28;20115;-70
2023/05/19 08:23:36;;;;;;;22.83;7.90;;;;;;;14.37;100.00;102429.56;5078344;28;20029;-69
2023/05/19 08:26:01;;;;;;;20.27;7.75;;;;;;;14.60;100.00;102418.31;5079014;28;20036;-70
2023/05/19 08:28:27;;;;;;;20.67;7.97;;;;;;;14.88;97.15;102427.56;5080386;28;20391;-70
2023/05/19 08:30:52;;;;;;;21.30;8.20;;;;;;;15.15;94.12;102416.31;5079842;28;20390;-70
2023/05/19 08:33:19;;;;;;;21.30;7.82;;;;;;;15.44;88.38;102420.16;5080896;28;20051;-70
2023/05/19 08:35:45;;;;;;;21.13;8.07;;;;;;;15.67;85.64;102418.56;5059561;28;20468;-70
2023/05/19 08:38:10;;;;;;;22.35;8.20;;;;;;;16.17;86.41;102411.81;5080429;28;20048;-69
2023/05/19 08:40:36;;;;;;;21.27;8.00;;;;;;;16.32;77.67;102419.00;5076408;28;20025;-70
2023/05/19 08:43:02;;;;;;;19.88;7.38;;;;;;;16.40;83.09;102413.75;5075046;28;20023;-69
2023/05/19 08:45:28;;;;;;;20.30;7.40;;;;;;;16.48;77.41;102413.78;5059967;28;20379;-70
2023/05/19 08:47:54;;;;;;;20.30;6.97;;;;;;;16.47;72.04;102414.66;5079956;28;20356;-71
2023/05/19 08:50:29;;;;;;;20.75;6.88;;;;;;;16.54;71.30;102411.13;5080605;28;20076;-71
2023/05/19 08:53:06;;;;;;;20.92;6.70;;;;;;;16.77;72.91;102413.88;5078774;28;20040;-69
2023/05/19 08:55:47;;;;;;;20.45;6.63;;;;;;;16.99;69.94;102404.19;5062963;28;20055;-69
2023/05/19 08:58:15;;;;;;;20.23;6.45;;;;;;;17.24;68.42;102401.56;5074227;28;20058;-69
2023/05/19 09:00:41;;;;;;;20.67;6.30;;;;;;;17.33;67.13;102398.00;5080597;28;20028;-69
2023/05/19 09:03:07;;;;;;;21.38;6.00;;;;;;;17.46;67.09;102391.78;5076373;28;20096;-69
2023/05/19 09:05:32;;;;;;;19.67;5.45;;;;;;;17.28;59.59;102397.13;5082385;28;20066;-70
2023/05/19 09:08:01;;;;;;;19.10;5.15;;;;;;;17.14;59.22;102387.31;5080052;28;20074;-71
2023/05/19 09:10:26;;;;;;;19.15;5.38;;;;;;;17.39;62.09;102392.69;5079418;28;20031;-70
2023/05/19 09:12:52;;;;;;;15.63;4.60;;;;;;;17.67;58.93;102381.97;5076664;28;20119;-71
2023/05/19 09:15:18;;;;;;;16.35;4.50;;;;;;;17.92;55.41;102386.41;5076520;28;20060;-70
2023/05/19 09:17:47;;;;;;;15.82;4.05;;;;;;;18.09;55.70;102375.69;5080263;28;20038;-70
2023/05/19 09:20:15;;;;;;;16.00;4.05;;;;;;;18.37;55.51;102370.22;5084299;28;20032;-70
2023/05/19 09:22:46;;;;;;;19.63;5.35;;;;;;;18.26;56.42;102364.03;5083337;28;20038;-70
2023/05/19 09:25:45;;;;;;;19.77;4.70;;;;;;;18.70;57.13;102368.31;5085154;28;20074;-70
2023/05/19 09:28:10;;;;;;;17.00;4.00;;;;;;;19.11;50.63;102369.84;5084043;28;20055;-70
2023/05/19 09:30:36;;;;;;;17.40;4.05;;;;;;;18.84;49.71;102353.94;5083915;28;20032;-69
2023/05/19 09:33:03;;;;;;;15.73;4.10;;;;;;;18.44;50.71;102357.72;5083314;28;20040;-70
2023/05/19 09:35:28;;;;;;;17.60;4.00;;;;;;;18.09;49.34;102367.66;5084743;28;20103;-70
2023/05/19 09:37:54;;;;;;;16.13;3.83;;;;;;;18.22;48.75;102359.59;5082781;28;20543;-70
2023/05/19 09:40:19;;;;;;;15.75;3.90;;;;;;;18.32;50.29;102363.13;5085565;28;20111;-69
2023/05/19 09:42:47;;;;;;;17.45;4.32;;;;;;;18.46;50.11;102356.81;5082153;28;20104;-69
2023/05/19 09:45:12;;;;;;;18.73;4.13;;;;;;;18.88;48.61;102350.38;5066831;28;20421;-69
2023/05/19 09:47:40;;;;;;;18.70;3.95;;;;;;;19.93;50.40;102362.91;5083172;28;20119;-70
2023/05/19 09:50:09;;;;;;;17.42;4.00;;;;;;;21.13;45.33;102358.66;5083459;28;20053;-70
2023/05/19 09:52:39;;;;;;;17.40;3.58;;;;;;;21.52;43.99;102369.69;5083736;28;20064;-70
2023/05/19 09:55:08;;;;;;;15.63;3.83;;;;;;;21.55;41.99;102371.44;5083658;28;20052;-70
2023/05/19 09:57:35;;;;;;;17.08;3.95;;;;;;;21.57;41.60;102370.50;5083458;28;20035;-69
2023/05/19 10:00:16;;;;;;;16.15;4.00;;;;;;;22.01;41.87;102377.78;5083017;28;20062;-70
2023/05/19 10:02:45;;;;;;;14.75;3.53;;;;;;;22.48;39.05;102370.53;5082647;28;20038;-70
2023/05/19 10:05:15;;;;;;;16.10;3.67;;;;;;;22.47;38.27;102363.41;5084119;28;20036;-70
2023/05/19 10:07:43;;;;;;;15.50;3.80;;;;;;;22.73;39.46;102368.22;5082309;28;20561;-69
2023/05/19 10:10:12;;;;;;;15.15;3.50;;;;;;;24.61;36.46;102367.81;5083921;28;20063;-70
2023/05/19 10:12:38;;;;;;;14.57;3.95;;;;;;;25.72;33.46;102366.88;5082987;28;20085;-69
2023/05/19 10:15:10;;;;;;;18.33;3.92;;;;;;;26.47;32.92;102359.63;5083024;28;20024;-70
2023/05/19 10:17:38;;;;;;;14.27;3.20;;;;;;;26.66;31.43;102362.50;5082933;28;20028;-71
2023/05/19 10:20:08;;;;;;;13.55;3.30;;;;;;;26.81;30.19;102365.56;5082784;28;20024;-70
2023/05/19 10:22:33;;;;;;;16.83;3.40;;;;;;;27.07;29.94;102356.38;5083240;28;20060;-68
2023/05/19 10:24:59;;;;;;;14.55;3.25;;;;;;;27.77;31.85;102355.22;5082140;28;20063;-72
2023/05/19 10:27:26;;;;;;;15.65;3.22;;;;;;;28.23;28.05;102352.25;5084591;28;20539;-68
2023/05/19 10:29:56;;;;;;;14.55;3.50;;;;;;;28.21;27.76;102354.16;5080959;28;20028;-71
2023/05/19 10:32:25;;;;;;;15.68;3.53;;;;;;;27.71;27.40;102360.00;5077391;28;20074;-72
2023/05/19 10:35:11;;;;;;;17.85;3.70;;;;;;;27.72;29.67;102353.66;5077506;28;20109;-70
2023/05/19 10:37:52;;;;;;;15.85;3.65;;;;;;;28.49;29.06;102348.28;5081775;28;20040;-70
2023/05/19 10:40:27;;;;;;;13.15;3.40;;;;;;;29.79;28.29;102349.97;5081334;28;20065;-68
2023/05/19 10:43:20;;;;;;;16.17;3.72;;;;;;;30.08;27.71;102339.38;5077826;28;20107;-72
2023/05/19 10:45:54;;;;;;;15.77;3.80;;;;;;;29.40;27.43;102334.78;5083907;28;20062;-71
2023/05/19 10:48:22;;;;;;;16.38;4.15;;;;;;;29.53;27.80;102344.09;5077049;28;20714;-71
2023/05/19 10:50:53;;;;;;;16.25;3.90;;;;;;;29.84;26.40;102342.47;5075772;28;20067;-71
2023/05/19 10:53:21;;;;;;;14.48;3.67;;;;;;;30.44;26.47;102332.88;5082077;28;20028;-71
2023/05/19 10:55:52;;;;;;;15.38;3.63;;;;;;;30.20;26.55;102338.72;5082031;28;20063;-71
2023/05/19 10:58:50;;;;;;;16.15;3.90;;;;;;;30.71;26.77;102335.88;5082272;28;20104;-71
2023/05/19 11:01:18;;;;;;;16.15;3.97;;;;;;;30.83;24.86;102325.19;5037655;28;20043;-72
2023/05/19 11:03:53;;;;;;;12.68;3.40;;;;;;;31.17;23.81;102329.56;5082231;28;20490;-71
2023/05/19 11:06:19;;;;;;;15.00;3.70;;;;;;;31.05;25.94;102327.59;5081900;28;20052;-71
2023/05/19 11:08:46;;;;;;;17.42;3.50;;;;;;;31.31;24.14;102326.00;5082258;28;20036;-72
2023/05/19 11:11:15;;;;;;;15.02;3.60;;;;;;;31.35;23.94;102334.88;5077944;28;20016;-72
2023/05/19 11:13:54;;;;;;;21.27;3.90;;;;;;;31.90;25.27;102338.81;5081526;28;20032;-71